sensor_id;sensor_type;location;lat;lon;timestamp;P1;durP1;ratioP1;P2;durP2;ratioP2
49962;SDS011;36180;57.678;11.910;2023-11-21T00:02:26;18.38;;;12.50;;
49962;SDS011;36180;57.678;11.910;2023-11-21T00:04:53;18.55;;;12.43;;
49962;SDS011;36180;57.678;11.910;2023-11-21T00:07:20;19.05;;;12.93;;
49962;SDS011;36180;57.678;11.910;2023-11-21T00:09:48;16.73;;;11.90;;
49962;SDS011;36180;57.678;11.910;2023-11-21T00:12:16;18.50;;;12.32;;
49962;SDS011;36180;57.678;11.910;2023-11-21T00:14:43;18.05;;;11.70;;
49962;SDS011;36180;57.678;11.910;2023-11-21T00:17:10;18.95;;;11.85;;
49962;SDS011;36180;57.678;11.910;2023-11-21T00:19:37;16.73;;;11.48;;
49962;SDS011;36180;57.678;11.910;2023-11-21T00:22:04;17.98;;;11.43;;
49962;SDS011;36180;57.678;11.910;2023-11-21T00:24:31;16.25;;;11.68;;
49962;SDS011;36180;57.678;11.910;2023-11-21T00:26:59;17.85;;;12.05;;
49962;SDS011;36180;57.678;11.910;2023-11-21T00:29:26;18.10;;;11.73;;
49962;SDS011;36180;57.678;11.910;2023-11-21T00:31:54;17.55;;;11.43;;
49962;SDS011;36180;57.678;11.910;2023-11-21T00:34:21;17.25;;;11.57;;
49962;SDS011;36180;57.678;11.910;2023-11-21T00:36:48;17.65;;;11.98;;
49962;SDS011;36180;57.678;11.910;2023-11-21T00:39:15;19.10;;;12.38;;
49962;SDS011;36180;57.678;11.910;2023-11-21T00:41:41;17.85;;;11.93;;
49962;SDS011;36180;57.678;11.910;2023-11-21T00:44:11;18.02;;;11.65;;
49962;SDS011;36180;57.678;11.910;2023-11-21T00:46:38;20.13;;;12.98;;
49962;SDS011;36180;57.678;11.910;2023-11-21T00:49:05;21.40;;;12.48;;
49962;SDS011;36180;57.678;11.910;2023-11-21T00:51:33;18.35;;;12.00;;
49962;SDS011;36180;57.678;11.910;2023-11-21T00:54:00;19.38;;;12.57;;
49962;SDS011;36180;57.678;11.910;2023-11-21T00:56:27;18.15;;;12.20;;
49962;SDS011;36180;57.678;11.910;2023-11-21T00:58:54;17.67;;;11.80;;
49962;SDS011;36180;57.678;11.910;2023-11-21T01:01:22;16.48;;;12.45;;
49962;SDS011;36180;57.678;11.910;2023-11-21T01:03:49;17.88;;;12.32;;
49962;SDS011;36180;57.678;11.910;2023-11-21T01:06:16;18.23;;;12.05;;
49962;SDS011;36180;57.678;11.910;2023-11-21T01:08:44;17.15;;;12.27;;
49962;SDS011;36180;57.678;11.910;2023-11-21T01:11:11;18.15;;;12.65;;
49962;SDS011;36180;57.678;11.910;2023-11-21T01:13:38;17.63;;;12.45;;
49962;SDS011;36180;57.678;11.910;2023-11-21T01:16:06;18.80;;;12.95;;
49962;SDS011;36180;57.678;11.910;2023-11-21T01:18:35;18.77;;;12.32;;
49962;SDS011;36180;57.678;11.910;2023-11-21T01:21:02;17.02;;;12.48;;
49962;SDS011;36180;57.678;11.910;2023-11-21T01:23:30;18.60;;;12.38;;
49962;SDS011;36180;57.678;11.910;2023-11-21T01:25:57;22.48;;;13.55;;
49962;SDS011;36180;57.678;11.910;2023-11-21T01:28:24;17.25;;;12.48;;
49962;SDS011;36180;57.678;11.910;2023-11-21T01:30:51;17.85;;;12.48;;
49962;SDS011;36180;57.678;11.910;2023-11-21T01:33:21;18.38;;;13.05;;
49962;SDS011;36180;57.678;11.910;2023-11-21T01:35:52;19.02;;;12.73;;
49962;SDS011;36180;57.678;11.910;2023-11-21T01:38:19;19.48;;;12.80;;
49962;SDS011;36180;57.678;11.910;2023-11-21T01:40:47;18.63;;;12.55;;
49962;SDS011;36180;57.678;11.910;2023-11-21T01:43:14;19.77;;;12.52;;
49962;SDS011;36180;57.678;11.910;2023-11-21T01:45:42;19.80;;;12.63;;
49962;SDS011;36180;57.678;11.910;2023-11-21T01:48:10;17.60;;;11.98;;
49962;SDS011;36180;57.678;11.910;2023-11-21T01:50:37;21.38;;;13.32;;
49962;SDS011;36180;57.678;11.910;2023-11-21T01:53:06;20.05;;;13.25;;
49962;SDS011;36180;57.678;11.910;2023-11-21T01:55:33;21.90;;;13.18;;
49962;SDS011;36180;57.678;11.910;2023-11-21T01:58:00;17.88;;;12.02;;
49962;SDS011;36180;57.678;11.910;2023-11-21T02:00:27;20.17;;;13.15;;
49962;SDS011;36180;57.678;11.910;2023-11-21T02:02:54;21.15;;;13.05;;
49962;SDS011;36180;57.678;11.910;2023-11-21T02:05:22;19.60;;;13.70;;
49962;SDS011;36180;57.678;11.910;2023-11-21T02:07:49;20.77;;;13.25;;
49962;SDS011;36180;57.678;11.910;2023-11-21T02:10:18;18.73;;;13.18;;
49962;SDS011;36180;57.678;11.910;2023-11-21T02:12:48;18.52;;;12.30;;
49962;SDS011;36180;57.678;11.910;2023-11-21T02:15:15;18.73;;;12.77;;
49962;SDS011;36180;57.678;11.910;2023-11-21T02:17:45;18.13;;;12.55;;
49962;SDS011;36180;57.678;11.910;2023-11-21T02:20:16;19.80;;;13.48;;
49962;SDS011;36180;57.678;11.910;2023-11-21T02:22:48;21.45;;;12.95;;
49962;SDS011;36180;57.678;11.910;2023-11-21T02:25:17;19.42;;;13.00;;
49962;SDS011;36180;57.678;11.910;2023-11-21T02:27:44;17.00;;;12.45;;
49962;SDS011;36180;57.678;11.910;2023-11-21T02:30:14;18.90;;;12.82;;
49962;SDS011;36180;57.678;11.910;2023-11-21T02:32:41;18.33;;;12.63;;
49962;SDS011;36180;57.678;11.910;2023-11-21T02:35:09;17.13;;;13.02;;
49962;SDS011;36180;57.678;11.910;2023-11-21T02:37:37;20.75;;;13.48;;
49962;SDS011;36180;57.678;11.910;2023-11-21T02:40:08;20.35;;;14.02;;
49962;SDS011;36180;57.678;11.910;2023-11-21T02:42:37;17.83;;;12.07;;
49962;SDS011;36180;57.678;11.910;2023-11-21T02:45:06;19.52;;;12.60;;
49962;SDS011;36180;57.678;11.910;2023-11-21T02:47:33;19.52;;;11.90;;
49962;SDS011;36180;57.678;11.910;2023-11-21T02:50:00;16.70;;;11.95;;
49962;SDS011;36180;57.678;11.910;2023-11-21T02:52:27;15.82;;;11.88;;
49962;SDS011;36180;57.678;11.910;2023-11-21T02:54:54;18.30;;;12.80;;
49962;SDS011;36180;57.678;11.910;2023-11-21T02:57:22;17.80;;;12.27;;
49962;SDS011;36180;57.678;11.910;2023-11-21T02:59:49;18.77;;;12.02;;
49962;SDS011;36180;57.678;11.910;2023-11-21T03:02:16;16.00;;;11.57;;
49962;SDS011;36180;57.678;11.910;2023-11-21T03:04:43;18.73;;;11.77;;
49962;SDS011;36180;57.678;11.910;2023-11-21T03:07:10;17.80;;;11.85;;
49962;SDS011;36180;57.678;11.910;2023-11-21T03:09:37;16.90;;;12.05;;
49962;SDS011;36180;57.678;11.910;2023-11-21T03:12:05;19.40;;;11.93;;
49962;SDS011;36180;57.678;11.910;2023-11-21T03:14:33;19.42;;;13.05;;
49962;SDS011;36180;57.678;11.910;2023-11-21T03:17:00;18.00;;;11.68;;
49962;SDS011;36180;57.678;11.910;2023-11-21T03:19:30;17.67;;;11.57;;
49962;SDS011;36180;57.678;11.910;2023-11-21T03:21:57;20.50;;;12.48;;
49962;SDS011;36180;57.678;11.910;2023-11-21T03:24:24;17.60;;;11.98;;
49962;SDS011;36180;57.678;11.910;2023-11-21T03:26:51;16.92;;;11.90;;
49962;SDS011;36180;57.678;11.910;2023-11-21T03:29:18;19.67;;;12.02;;
49962;SDS011;36180;57.678;11.910;2023-11-21T03:31:47;16.58;;;12.15;;
49962;SDS011;36180;57.678;11.910;2023-11-21T03:34:15;19.48;;;11.88;;
49962;SDS011;36180;57.678;11.910;2023-11-21T03:36:43;16.63;;;11.52;;
49962;SDS011;36180;57.678;11.910;2023-11-21T03:39:11;17.58;;;11.85;;
49962;SDS011;36180;57.678;11.910;2023-11-21T03:41:38;16.35;;;11.20;;
49962;SDS011;36180;57.678;11.910;2023-11-21T03:44:05;18.38;;;11.52;;
49962;SDS011;36180;57.678;11.910;2023-11-21T03:46:32;17.05;;;10.85;;
49962;SDS011;36180;57.678;11.910;2023-11-21T03:49:01;15.80;;;10.73;;
49962;SDS011;36180;57.678;11.910;2023-11-21T03:51:28;19.33;;;12.00;;
49962;SDS011;36180;57.678;11.910;2023-11-21T03:53:54;15.98;;;11.63;;
49962;SDS011;36180;57.678;11.910;2023-11-21T03:56:21;15.82;;;10.80;;
49962;SDS011;36180;57.678;11.910;2023-11-21T03:58:48;15.07;;;9.85;;
49962;SDS011;36180;57.678;11.910;2023-11-21T04:01:19;19.85;;;11.55;;
49962;SDS011;36180;57.678;11.910;2023-11-21T04:03:47;17.48;;;11.10;;
49962;SDS011;36180;57.678;11.910;2023-11-21T04:06:18;15.23;;;10.48;;
49962;SDS011;36180;57.678;11.910;2023-11-21T04:08:45;16.20;;;10.63;;
49962;SDS011;36180;57.678;11.910;2023-11-21T04:11:12;15.15;;;11.02;;
49962;SDS011;36180;57.678;11.910;2023-11-21T04:13:39;14.45;;;10.70;;
49962;SDS011;36180;57.678;11.910;2023-11-21T04:16:08;15.32;;;10.30;;
49962;SDS011;36180;57.678;11.910;2023-11-21T04:18:35;14.27;;;10.25;;
49962;SDS011;36180;57.678;11.910;2023-11-21T04:21:02;14.30;;;10.13;;
49962;SDS011;36180;57.678;11.910;2023-11-21T04:23:31;14.15;;;10.27;;
49962;SDS011;36180;57.678;11.910;2023-11-21T04:25:58;14.43;;;10.05;;
49962;SDS011;36180;57.678;11.910;2023-11-21T04:28:25;17.02;;;9.90;;
49962;SDS011;36180;57.678;11.910;2023-11-21T04:30:52;17.10;;;10.50;;
49962;SDS011;36180;57.678;11.910;2023-11-21T04:33:19;13.45;;;9.85;;
49962;SDS011;36180;57.678;11.910;2023-11-21T04:35:46;15.30;;;9.98;;
49962;SDS011;36180;57.678;11.910;2023-11-21T04:38:13;14.80;;;10.48;;
49962;SDS011;36180;57.678;11.910;2023-11-21T04:40:41;15.73;;;10.38;;
49962;SDS011;36180;57.678;11.910;2023-11-21T04:43:08;15.20;;;10.27;;
49962;SDS011;36180;57.678;11.910;2023-11-21T04:45:35;14.25;;;9.32;;
49962;SDS011;36180;57.678;11.910;2023-11-21T04:48:02;13.02;;;9.50;;
49962;SDS011;36180;57.678;11.910;2023-11-21T04:50:30;14.50;;;10.07;;
49962;SDS011;36180;57.678;11.910;2023-11-21T04:52:57;14.60;;;10.55;;
49962;SDS011;36180;57.678;11.910;2023-11-21T04:55:24;15.43;;;10.48;;
49962;SDS011;36180;57.678;11.910;2023-11-21T04:57:54;14.75;;;10.05;;
49962;SDS011;36180;57.678;11.910;2023-11-21T05:00:21;16.23;;;10.90;;
49962;SDS011;36180;57.678;11.910;2023-11-21T05:02:48;15.70;;;9.85;;
49962;SDS011;36180;57.678;11.910;2023-11-21T05:05:15;14.05;;;10.57;;
49962;SDS011;36180;57.678;11.910;2023-11-21T05:07:42;14.35;;;10.15;;
49962;SDS011;36180;57.678;11.910;2023-11-21T05:10:09;13.90;;;9.82;;
49962;SDS011;36180;57.678;11.910;2023-11-21T05:12:37;15.82;;;9.30;;
49962;SDS011;36180;57.678;11.910;2023-11-21T05:15:06;18.05;;;10.25;;
49962;SDS011;36180;57.678;11.910;2023-11-21T05:17:36;16.60;;;9.57;;
49962;SDS011;36180;57.678;11.910;2023-11-21T05:20:04;13.90;;;10.38;;
49962;SDS011;36180;57.678;11.910;2023-11-21T05:22:33;15.48;;;10.32;;
49962;SDS011;36180;57.678;11.910;2023-11-21T05:25:01;14.48;;;9.70;;
49962;SDS011;36180;57.678;11.910;2023-11-21T05:27:28;14.18;;;9.68;;
49962;SDS011;36180;57.678;11.910;2023-11-21T05:29:56;15.77;;;9.70;;
49962;SDS011;36180;57.678;11.910;2023-11-21T05:32:24;14.10;;;9.93;;
49962;SDS011;36180;57.678;11.910;2023-11-21T05:34:52;11.88;;;9.13;;
49962;SDS011;36180;57.678;11.910;2023-11-21T05:37:19;13.63;;;9.77;;
49962;SDS011;36180;57.678;11.910;2023-11-21T05:39:46;15.68;;;10.27;;
49962;SDS011;36180;57.678;11.910;2023-11-21T05:42:13;16.52;;;9.75;;
49962;SDS011;36180;57.678;11.910;2023-11-21T05:44:41;15.32;;;9.93;;
49962;SDS011;36180;57.678;11.910;2023-11-21T05:47:08;15.50;;;9.40;;
49962;SDS011;36180;57.678;11.910;2023-11-21T05:49:37;14.70;;;9.85;;
49962;SDS011;36180;57.678;11.910;2023-11-21T05:52:04;13.40;;;9.00;;
49962;SDS011;36180;57.678;11.910;2023-11-21T05:54:31;14.90;;;9.55;;
49962;SDS011;36180;57.678;11.910;2023-11-21T05:56:59;12.70;;;8.55;;
49962;SDS011;36180;57.678;11.910;2023-11-21T05:59:27;12.50;;;9.20;;
49962;SDS011;36180;57.678;11.910;2023-11-21T06:01:54;13.70;;;8.60;;
49962;SDS011;36180;57.678;11.910;2023-11-21T06:04:21;12.73;;;9.30;;
49962;SDS011;36180;57.678;11.910;2023-11-21T06:06:51;10.68;;;8.27;;
49962;SDS011;36180;57.678;11.910;2023-11-21T06:09:19;13.65;;;8.68;;
49962;SDS011;36180;57.678;11.910;2023-11-21T06:11:47;14.43;;;8.88;;
49962;SDS011;36180;57.678;11.910;2023-11-21T06:14:14;10.48;;;8.20;;
49962;SDS011;36180;57.678;11.910;2023-11-21T06:16:43;13.60;;;8.80;;
49962;SDS011;36180;57.678;11.910;2023-11-21T06:19:10;13.82;;;8.40;;
49962;SDS011;36180;57.678;11.910;2023-11-21T06:21:38;12.43;;;8.60;;
49962;SDS011;36180;57.678;11.910;2023-11-21T06:24:07;12.15;;;9.02;;
49962;SDS011;36180;57.678;11.910;2023-11-21T06:26:34;13.00;;;8.77;;
49962;SDS011;36180;57.678;11.910;2023-11-21T06:29:01;12.45;;;8.65;;
49962;SDS011;36180;57.678;11.910;2023-11-21T06:31:29;13.82;;;9.50;;
49962;SDS011;36180;57.678;11.910;2023-11-21T06:33:58;14.25;;;8.48;;
49962;SDS011;36180;57.678;11.910;2023-11-21T06:36:25;12.98;;;8.88;;
49962;SDS011;36180;57.678;11.910;2023-11-21T06:38:52;11.70;;;8.10;;
49962;SDS011;36180;57.678;11.910;2023-11-21T06:41:21;13.85;;;9.57;;
49962;SDS011;36180;57.678;11.910;2023-11-21T06:43:48;11.27;;;9.05;;
49962;SDS011;36180;57.678;11.910;2023-11-21T06:46:15;11.75;;;8.63;;
49962;SDS011;36180;57.678;11.910;2023-11-21T06:48:44;12.95;;;8.90;;
49962;SDS011;36180;57.678;11.910;2023-11-21T06:51:11;11.68;;;8.68;;
49962;SDS011;36180;57.678;11.910;2023-11-21T06:53:38;12.88;;;8.70;;
49962;SDS011;36180;57.678;11.910;2023-11-21T06:56:05;12.98;;;8.98;;
49962;SDS011;36180;57.678;11.910;2023-11-21T06:58:43;14.23;;;8.48;;
49962;SDS011;36180;57.678;11.910;2023-11-21T07:01:11;11.43;;;8.20;;
49962;SDS011;36180;57.678;11.910;2023-11-21T07:03:38;12.95;;;8.45;;
49962;SDS011;36180;57.678;11.910;2023-11-21T07:06:06;12.52;;;8.40;;
49962;SDS011;36180;57.678;11.910;2023-11-21T07:08:33;13.93;;;8.90;;
49962;SDS011;36180;57.678;11.910;2023-11-21T07:11:00;14.43;;;9.27;;
49962;SDS011;36180;57.678;11.910;2023-11-21T07:13:28;11.88;;;8.55;;
49962;SDS011;36180;57.678;11.910;2023-11-21T07:15:57;11.77;;;8.32;;
49962;SDS011;36180;57.678;11.910;2023-11-21T07:18:24;14.20;;;8.52;;
49962;SDS011;36180;57.678;11.910;2023-11-21T07:20:51;12.13;;;8.60;;
49962;SDS011;36180;57.678;11.910;2023-11-21T07:23:18;13.18;;;8.20;;
49962;SDS011;36180;57.678;11.910;2023-11-21T07:25:46;12.48;;;8.52;;
49962;SDS011;36180;57.678;11.910;2023-11-21T07:28:13;12.30;;;8.43;;
49962;SDS011;36180;57.678;11.910;2023-11-21T07:30:40;14.68;;;8.57;;
49962;SDS011;36180;57.678;11.910;2023-11-21T07:33:09;12.50;;;8.55;;
49962;SDS011;36180;57.678;11.910;2023-11-21T07:35:36;13.02;;;7.70;;
49962;SDS011;36180;57.678;11.910;2023-11-21T07:38:03;13.05;;;8.30;;
49962;SDS011;36180;57.678;11.910;2023-11-21T07:40:30;14.45;;;8.15;;
49962;SDS011;36180;57.678;11.910;2023-11-21T07:42:57;11.73;;;8.00;;
49962;SDS011;36180;57.678;11.910;2023-11-21T07:45:24;13.90;;;8.90;;
49962;SDS011;36180;57.678;11.910;2023-11-21T07:47:52;12.63;;;8.73;;
49962;SDS011;36180;57.678;11.910;2023-11-21T07:50:21;14.25;;;8.57;;
49962;SDS011;36180;57.678;11.910;2023-11-21T07:52:48;11.95;;;7.43;;
49962;SDS011;36180;57.678;11.910;2023-11-21T07:55:15;13.80;;;8.23;;
49962;SDS011;36180;57.678;11.910;2023-11-21T07:57:42;16.40;;;9.52;;
49962;SDS011;36180;57.678;11.910;2023-11-21T08:00:10;14.88;;;8.38;;
49962;SDS011;36180;57.678;11.910;2023-11-21T08:02:40;13.25;;;8.68;;
49962;SDS011;36180;57.678;11.910;2023-11-21T08:05:07;13.65;;;8.57;;
49962;SDS011;36180;57.678;11.910;2023-11-21T08:07:37;13.80;;;8.77;;
49962;SDS011;36180;57.678;11.910;2023-11-21T08:10:04;12.95;;;8.45;;
49962;SDS011;36180;57.678;11.910;2023-11-21T08:12:35;14.43;;;8.68;;
49962;SDS011;36180;57.678;11.910;2023-11-21T08:15:04;10.85;;;8.07;;
49962;SDS011;36180;57.678;11.910;2023-11-21T08:17:32;12.88;;;8.40;;
49962;SDS011;36180;57.678;11.910;2023-11-21T08:20:00;13.20;;;8.18;;
49962;SDS011;36180;57.678;11.910;2023-11-21T08:22:28;15.60;;;8.50;;
49962;SDS011;36180;57.678;11.910;2023-11-21T08:24:57;11.90;;;7.78;;
49962;SDS011;36180;57.678;11.910;2023-11-21T08:27:24;13.52;;;8.52;;
49962;SDS011;36180;57.678;11.910;2023-11-21T08:29:51;13.10;;;8.00;;
49962;SDS011;36180;57.678;11.910;2023-11-21T08:32:18;11.95;;;8.35;;
49962;SDS011;36180;57.678;11.910;2023-11-21T08:34:45;13.52;;;9.15;;
49962;SDS011;36180;57.678;11.910;2023-11-21T08:37:15;12.35;;;8.05;;
49962;SDS011;36180;57.678;11.910;2023-11-21T08:39:43;11.65;;;7.90;;
49962;SDS011;36180;57.678;11.910;2023-11-21T08:42:11;12.60;;;8.18;;
49962;SDS011;36180;57.678;11.910;2023-11-21T08:44:38;14.93;;;9.93;;
49962;SDS011;36180;57.678;11.910;2023-11-21T08:47:05;15.25;;;9.68;;
49962;SDS011;36180;57.678;11.910;2023-11-21T08:49:32;13.77;;;9.35;;
49962;SDS011;36180;57.678;11.910;2023-11-21T08:51:59;14.63;;;9.30;;
49962;SDS011;36180;57.678;11.910;2023-11-21T08:54:26;14.57;;;9.05;;
49962;SDS011;36180;57.678;11.910;2023-11-21T08:56:53;12.75;;;8.77;;
49962;SDS011;36180;57.678;11.910;2023-11-21T08:59:24;12.65;;;8.15;;
49962;SDS011;36180;57.678;11.910;2023-11-21T09:01:51;14.43;;;8.75;;
49962;SDS011;36180;57.678;11.910;2023-11-21T09:04:18;18.92;;;8.57;;
49962;SDS011;36180;57.678;11.910;2023-11-21T09:06:45;16.42;;;8.95;;
49962;SDS011;36180;57.678;11.910;2023-11-21T09:09:12;16.05;;;9.20;;
49962;SDS011;36180;57.678;11.910;2023-11-21T09:11:39;16.20;;;9.48;;
49962;SDS011;36180;57.678;11.910;2023-11-21T09:14:06;14.52;;;9.20;;
49962;SDS011;36180;57.678;11.910;2023-11-21T09:16:35;15.73;;;10.00;;
49962;SDS011;36180;57.678;11.910;2023-11-21T09:19:02;14.60;;;9.25;;
49962;SDS011;36180;57.678;11.910;2023-11-21T09:21:30;13.18;;;8.93;;
49962;SDS011;36180;57.678;11.910;2023-11-21T09:23:58;16.73;;;9.50;;
49962;SDS011;36180;57.678;11.910;2023-11-21T09:26:25;13.90;;;9.20;;
49962;SDS011;36180;57.678;11.910;2023-11-21T09:28:52;15.82;;;8.68;;
49962;SDS011;36180;57.678;11.910;2023-11-21T09:31:19;13.73;;;8.60;;
49962;SDS011;36180;57.678;11.910;2023-11-21T09:33:49;14.35;;;8.77;;
49962;SDS011;36180;57.678;11.910;2023-11-21T09:36:16;12.40;;;8.63;;
49962;SDS011;36180;57.678;11.910;2023-11-21T09:38:43;17.42;;;9.27;;
49962;SDS011;36180;57.678;11.910;2023-11-21T09:41:11;13.73;;;8.98;;
49962;SDS011;36180;57.678;11.910;2023-11-21T09:43:43;13.25;;;8.73;;
49962;SDS011;36180;57.678;11.910;2023-11-21T09:46:12;12.15;;;8.68;;
49962;SDS011;36180;57.678;11.910;2023-11-21T09:48:45;11.75;;;8.45;;
49962;SDS011;36180;57.678;11.910;2023-11-21T09:51:18;13.30;;;8.40;;
49962;SDS011;36180;57.678;11.910;2023-11-21T09:53:47;13.95;;;8.50;;
49962;SDS011;36180;57.678;11.910;2023-11-21T09:56:17;12.52;;;8.57;;
49962;SDS011;36180;57.678;11.910;2023-11-21T09:58:50;11.93;;;8.23;;
49962;SDS011;36180;57.678;11.910;2023-11-21T10:01:18;11.55;;;7.47;;
49962;SDS011;36180;57.678;11.910;2023-11-21T10:03:46;11.98;;;7.43;;
49962;SDS011;36180;57.678;11.910;2023-11-21T10:06:14;11.10;;;7.68;;
49962;SDS011;36180;57.678;11.910;2023-11-21T10:08:42;13.10;;;8.25;;
49962;SDS011;36180;57.678;11.910;2023-11-21T10:11:09;11.52;;;7.47;;
49962;SDS011;36180;57.678;11.910;2023-11-21T10:13:37;10.43;;;7.22;;
49962;SDS011;36180;57.678;11.910;2023-11-21T10:16:05;10.80;;;7.38;;
49962;SDS011;36180;57.678;11.910;2023-11-21T10:18:37;9.87;;;7.17;;
49962;SDS011;36180;57.678;11.910;2023-11-21T10:21:05;10.48;;;6.80;;
49962;SDS011;36180;57.678;11.910;2023-11-21T10:23:35;11.88;;;7.07;;
49962;SDS011;36180;57.678;11.910;2023-11-21T10:26:02;10.23;;;6.22;;
49962;SDS011;36180;57.678;11.910;2023-11-21T10:28:33;10.75;;;7.40;;
49962;SDS011;36180;57.678;11.910;2023-11-21T10:31:02;10.33;;;6.77;;
49962;SDS011;36180;57.678;11.910;2023-11-21T10:33:29;10.20;;;6.38;;
49962;SDS011;36180;57.678;11.910;2023-11-21T10:35:57;10.60;;;6.78;;
49962;SDS011;36180;57.678;11.910;2023-11-21T10:38:26;14.73;;;6.65;;
49962;SDS011;36180;57.678;11.910;2023-11-21T10:40:56;10.40;;;7.18;;
49962;SDS011;36180;57.678;11.910;2023-11-21T10:43:25;7.63;;;5.68;;
49962;SDS011;36180;57.678;11.910;2023-11-21T10:45:52;11.15;;;6.97;;
49962;SDS011;36180;57.678;11.910;2023-11-21T10:48:19;8.63;;;6.20;;
49962;SDS011;36180;57.678;11.910;2023-11-21T10:50:47;8.55;;;6.30;;
49962;SDS011;36180;57.678;11.910;2023-11-21T10:53:15;9.18;;;6.63;;
49962;SDS011;36180;57.678;11.910;2023-11-21T10:55:42;9.15;;;6.38;;
49962;SDS011;36180;57.678;11.910;2023-11-21T10:58:11;9.10;;;6.47;;
49962;SDS011;36180;57.678;11.910;2023-11-21T11:00:40;9.35;;;6.07;;
49962;SDS011;36180;57.678;11.910;2023-11-21T11:03:08;8.40;;;5.85;;
49962;SDS011;36180;57.678;11.910;2023-11-21T11:05:39;6.93;;;5.97;;
49962;SDS011;36180;57.678;11.910;2023-11-21T11:08:07;7.97;;;6.07;;
49962;SDS011;36180;57.678;11.910;2023-11-21T11:10:35;8.05;;;5.68;;
49962;SDS011;36180;57.678;11.910;2023-11-21T11:13:02;6.40;;;5.00;;
49962;SDS011;36180;57.678;11.910;2023-11-21T11:15:31;7.35;;;5.63;;
49962;SDS011;36180;57.678;11.910;2023-11-21T11:17:58;6.40;;;4.80;;
49962;SDS011;36180;57.678;11.910;2023-11-21T11:20:27;6.45;;;4.97;;
49962;SDS011;36180;57.678;11.910;2023-11-21T11:23:04;6.55;;;4.95;;
49962;SDS011;36180;57.678;11.910;2023-11-21T11:25:41;5.53;;;4.72;;
49962;SDS011;36180;57.678;11.910;2023-11-21T11:28:19;6.43;;;4.78;;
49962;SDS011;36180;57.678;11.910;2023-11-21T11:30:56;7.53;;;5.50;;
49962;SDS011;36180;57.678;11.910;2023-11-21T11:36:00;7.97;;;4.78;;
49962;SDS011;36180;57.678;11.910;2023-11-21T11:38:31;8.38;;;5.10;;
49962;SDS011;36180;57.678;11.910;2023-11-21T11:41:01;7.32;;;4.60;;
49962;SDS011;36180;57.678;11.910;2023-11-21T11:43:29;6.70;;;4.75;;
49962;SDS011;36180;57.678;11.910;2023-11-21T11:45:59;8.05;;;5.60;;
49962;SDS011;36180;57.678;11.910;2023-11-21T11:48:28;7.93;;;4.78;;
49962;SDS011;36180;57.678;11.910;2023-11-21T11:51:03;6.68;;;5.10;;
49962;SDS011;36180;57.678;11.910;2023-11-21T11:53:37;7.22;;;5.22;;
49962;SDS011;36180;57.678;11.910;2023-11-21T11:56:25;6.43;;;4.45;;
49962;SDS011;36180;57.678;11.910;2023-11-21T11:58:53;7.38;;;4.55;;
49962;SDS011;36180;57.678;11.910;2023-11-21T12:01:23;6.75;;;4.90;;
49962;SDS011;36180;57.678;11.910;2023-11-21T12:07:02;5.28;;;4.50;;
49962;SDS011;36180;57.678;11.910;2023-11-21T12:09:30;8.95;;;4.90;;
49962;SDS011;36180;57.678;11.910;2023-11-21T12:11:58;6.45;;;4.78;;
49962;SDS011;36180;57.678;11.910;2023-11-21T12:14:26;5.95;;;4.57;;
49962;SDS011;36180;57.678;11.910;2023-11-21T12:16:55;7.28;;;4.72;;
49962;SDS011;36180;57.678;11.910;2023-11-21T12:19:22;8.38;;;4.47;;
49962;SDS011;36180;57.678;11.910;2023-11-21T12:21:49;8.63;;;4.50;;
49962;SDS011;36180;57.678;11.910;2023-11-21T12:24:17;7.55;;;4.57;;
49962;SDS011;36180;57.678;11.910;2023-11-21T12:26:44;6.40;;;5.00;;
49962;SDS011;36180;57.678;11.910;2023-11-21T12:29:11;8.85;;;4.13;;
49962;SDS011;36180;57.678;11.910;2023-11-21T12:31:38;6.13;;;4.15;;
49962;SDS011;36180;57.678;11.910;2023-11-21T12:34:07;6.00;;;4.30;;
49962;SDS011;36180;57.678;11.910;2023-11-21T12:36:37;6.95;;;4.15;;
49962;SDS011;36180;57.678;11.910;2023-11-21T12:39:04;8.40;;;4.38;;
49962;SDS011;36180;57.678;11.910;2023-11-21T12:41:34;6.20;;;4.45;;
49962;SDS011;36180;57.678;11.910;2023-11-21T12:44:01;7.50;;;4.43;;
49962;SDS011;36180;57.678;11.910;2023-11-21T12:46:28;6.75;;;4.32;;
49962;SDS011;36180;57.678;11.910;2023-11-21T12:48:57;7.82;;;4.03;;
49962;SDS011;36180;57.678;11.910;2023-11-21T12:51:25;7.35;;;4.80;;
49962;SDS011;36180;57.678;11.910;2023-11-21T12:53:52;8.45;;;4.72;;
49962;SDS011;36180;57.678;11.910;2023-11-21T12:56:21;6.85;;;4.43;;
49962;SDS011;36180;57.678;11.910;2023-11-21T12:58:49;8.55;;;4.60;;
49962;SDS011;36180;57.678;11.910;2023-11-21T13:01:17;6.32;;;4.50;;
49962;SDS011;36180;57.678;11.910;2023-11-21T13:03:47;5.82;;;4.10;;
49962;SDS011;36180;57.678;11.910;2023-11-21T13:06:16;6.55;;;4.13;;
49962;SDS011;36180;57.678;11.910;2023-11-21T13:08:45;7.13;;;4.82;;
49962;SDS011;36180;57.678;11.910;2023-11-21T13:11:12;6.90;;;4.20;;
49962;SDS011;36180;57.678;11.910;2023-11-21T13:13:40;7.85;;;4.30;;
49962;SDS011;36180;57.678;11.910;2023-11-21T13:16:08;6.93;;;4.90;;
49962;SDS011;36180;57.678;11.910;2023-11-21T13:18:35;6.07;;;4.22;;
49962;SDS011;36180;57.678;11.910;2023-11-21T13:21:03;7.22;;;4.15;;
49962;SDS011;36180;57.678;11.910;2023-11-21T13:23:35;5.55;;;4.25;;
49962;SDS011;36180;57.678;11.910;2023-11-21T13:26:04;6.47;;;4.30;;
49962;SDS011;36180;57.678;11.910;2023-11-21T13:28:32;5.68;;;4.22;;
49962;SDS011;36180;57.678;11.910;2023-11-21T13:30:59;5.45;;;4.18;;
49962;SDS011;36180;57.678;11.910;2023-11-21T13:33:34;7.05;;;3.90;;
49962;SDS011;36180;57.678;11.910;2023-11-21T13:36:03;6.03;;;4.25;;
49962;SDS011;36180;57.678;11.910;2023-11-21T13:38:33;5.18;;;4.00;;
49962;SDS011;36180;57.678;11.910;2023-11-21T13:41:01;4.95;;;4.25;;
49962;SDS011;36180;57.678;11.910;2023-11-21T13:43:33;6.57;;;3.70;;
49962;SDS011;36180;57.678;11.910;2023-11-21T13:46:02;7.30;;;4.20;;
49962;SDS011;36180;57.678;11.910;2023-11-21T13:48:38;4.82;;;3.75;;
49962;SDS011;36180;57.678;11.910;2023-11-21T13:51:08;8.15;;;4.30;;
49962;SDS011;36180;57.678;11.910;2023-11-21T13:53:42;5.68;;;3.88;;
49962;SDS011;36180;57.678;11.910;2023-11-21T13:56:09;4.85;;;3.83;;
49962;SDS011;36180;57.678;11.910;2023-11-21T13:58:39;4.65;;;3.60;;
49962;SDS011;36180;57.678;11.910;2023-11-21T14:01:11;4.40;;;3.35;;
49962;SDS011;36180;57.678;11.910;2023-11-21T14:03:57;6.32;;;3.90;;
49962;SDS011;36180;57.678;11.910;2023-11-21T14:06:33;6.03;;;3.67;;
49962;SDS011;36180;57.678;11.910;2023-11-21T14:09:10;6.18;;;4.22;;
49962;SDS011;36180;57.678;11.910;2023-11-21T14:11:39;8.23;;;4.40;;
49962;SDS011;36180;57.678;11.910;2023-11-21T14:14:07;5.18;;;3.80;;
49962;SDS011;36180;57.678;11.910;2023-11-21T14:16:34;5.88;;;3.60;;
49962;SDS011;36180;57.678;11.910;2023-11-21T14:19:02;5.65;;;3.38;;
49962;SDS011;36180;57.678;11.910;2023-11-21T14:21:40;5.70;;;3.90;;
49962;SDS011;36180;57.678;11.910;2023-11-21T14:24:08;5.18;;;3.60;;
49962;SDS011;36180;57.678;11.910;2023-11-21T14:26:38;6.68;;;4.57;;
49962;SDS011;36180;57.678;11.910;2023-11-21T14:29:08;5.90;;;3.97;;
49962;SDS011;36180;57.678;11.910;2023-11-21T14:31:37;4.57;;;3.10;;
49962;SDS011;36180;57.678;11.910;2023-11-21T14:34:04;4.78;;;3.28;;